Time,TemperatureF,DewpointF,PressureIn,WindDirection,WindDirectionDegrees,WindSpeedMPH,WindSpeedGustMPH,Humidity,HourlyPrecipIn,Conditions,Clouds,dailyrainin,SoftwareType,DateUTC
2013-01-03 00:01:00,36.0,24.0,30.13,North,0,0.0,4.0,61,0.00,,,0.00,,2013-01-03 08:01:00,
2013-01-03 00:11:00,36.0,24.0,30.13,North,0,0.0,4.0,61,0.00,,,0.00,,2013-01-03 08:11:00,
2013-01-03 00:22:00,36.0,23.0,30.13,North,0,0.0,2.0,58,0.00,,,0.00,,2013-01-03 08:22:00,
2013-01-03 00:32:00,35.0,22.0,30.13,North,0,0.0,2.0,59,0.00,,,0.00,,2013-01-03 08:32:00,
2013-01-03 00:42:00,35.0,22.0,30.13,North,0,0.0,2.0,59,0.00,,,0.00,,2013-01-03 08:42:00,
2013-01-03 00:53:00,35.0,23.0,30.13,North,0,0.0,2.0,62,0.00,,,0.00,,2013-01-03 08:53:00,
2013-01-03 01:02:00,36.0,24.0,30.12,East,87,1.0,5.0,62,0.00,,,0.00,,2013-01-03 09:02:00,
2013-01-03 01:11:00,36.0,24.0,30.12,East,87,1.0,5.0,62,0.00,,,0.00,,2013-01-03 09:11:00,
2013-01-03 01:22:00,35.0,24.0,30.12,North,0,0.0,2.0,63,0.00,,,0.00,,2013-01-03 09:22:00,
2013-01-03 01:32:00,35.0,22.0,30.12,North,0,0.0,3.0,59,0.00,,,0.00,,2013-01-03 09:32:00,
2013-01-03 01:42:00,35.0,22.0,30.12,North,0,0.0,3.0,59,0.00,,,0.00,,2013-01-03 09:42:00,
2013-01-03 01:52:00,34.0,21.0,30.13,North,0,0.0,3.0,59,0.00,,,0.00,,2013-01-03 09:52:00,
2013-01-03 02:01:00,34.0,20.0,30.13,North,0,0.0,3.0,57,0.00,,,0.00,,2013-01-03 10:01:00,
2013-01-03 02:11:00,34.0,20.0,30.13,North,0,0.0,3.0,57,0.00,,,0.00,,2013-01-03 10:11:00,
2013-01-03 02:22:00,34.0,20.0,30.13,North,0,0.0,4.0,57,0.00,,,0.00,,2013-01-03 10:22:00,
2013-01-03 02:32:00,34.0,20.0,30.13,North,0,0.0,4.0,56,0.00,,,0.00,,2013-01-03 10:32:00,
2013-01-03 02:42:00,34.0,20.0,30.13,North,0,0.0,4.0,56,0.00,,,0.00,,2013-01-03 10:42:00,
2013-01-03 02:52:00,35.0,20.0,30.13,ESE,108,2.0,7.0,55,0.00,,,0.00,,2013-01-03 10:52:00,
2013-01-03 03:01:00,35.0,20.0,30.13,North,0,0.0,5.0,55,0.00,,,0.00,,2013-01-03 11:01:00,
2013-01-03 03:11:00,35.0,20.0,30.13,North,0,0.0,5.0,55,0.00,,,0.00,,2013-01-03 11:11:00,
2013-01-03 03:22:00,35.0,20.0,30.13,ESE,115,2.0,5.0,55,0.00,,,0.00,,2013-01-03 11:22:00,
2013-01-03 03:32:00,35.0,20.0,30.13,South,178,1.0,4.0,55,0.00,,,0.00,,2013-01-03 11:32:00,
2013-01-03 03:42:00,35.0,20.0,30.13,South,178,1.0,4.0,55,0.00,,,0.00,,2013-01-03 11:42:00,
2013-01-03 03:52:00,34.0,20.0,30.13,South,176,3.0,5.0,57,0.00,,,0.00,,2013-01-03 11:52:00,
2013-01-03 04:02:00,34.0,21.0,30.12,North,0,0.0,2.0,58,0.00,,,0.00,,2013-01-03 12:02:00,
2013-01-03 04:12:00,34.0,21.0,30.12,North,0,0.0,2.0,58,0.00,,,0.00,,2013-01-03 12:12:00,
2013-01-03 04:22:00,33.0,20.0,30.12,South,188,2.0,4.0,59,0.00,,,0.00,,2013-01-03 12:22:00,
2013-01-03 04:32:00,34.0,20.0,30.11,South,175,2.0,6.0,56,0.00,,,0.00,,2013-01-03 12:32:00,
2013-01-03 04:42:00,34.0,20.0,30.11,South,175,2.0,6.0,56,0.00,,,0.00,,2013-01-03 12:42:00,
2013-01-03 04:52:00,34.0,21.0,30.10,North,0,0.0,2.0,59,0.00,,,0.00,,2013-01-03 12:52:00,
2013-01-03 05:02:00,33.0,20.0,30.10,North,0,0.0,4.0,59,0.00,,,0.00,,2013-01-03 13:02:00,
2013-01-03 05:12:00,33.0,20.0,30.10,North,0,0.0,4.0,59,0.00,,,0.00,,2013-01-03 13:12:00,
2013-01-03 05:22:00,34.0,21.0,30.09,South,183,1.0,4.0,58,0.00,,,0.00,,2013-01-03 13:22:00,
2013-01-03 05:32:00,34.0,21.0,30.09,SSW,198,2.0,5.0,58,0.00,,,0.00,,2013-01-03 13:32:00,
2013-01-03 05:42:00,34.0,21.0,30.09,SSW,198,2.0,5.0,58,0.00,,,0.00,,2013-01-03 13:42:00,
2013-01-03 05:52:00,35.0,20.0,30.09,South,186,3.0,5.0,55,0.00,,,0.00,,2013-01-03 13:52:00,
2013-01-03 06:02:00,34.0,20.0,30.08,South,179,1.0,5.0,56,0.00,,,0.00,,2013-01-03 14:02:00,
2013-01-03 06:11:00,34.0,20.0,30.08,South,179,1.0,5.0,56,0.00,,,0.00,,2013-01-03 14:11:00,
2013-01-03 06:22:00,34.0,21.0,30.08,North,0,0.0,3.0,58,0.00,,,0.00,,2013-01-03 14:22:00,
2013-01-03 06:32:00,33.0,22.0,30.07,North,0,0.0,1.0,64,0.00,,,0.00,,2013-01-03 14:32:00,
2013-01-03 06:42:00,33.0,22.0,30.07,North,0,0.0,1.0,64,0.00,,,0.00,,2013-01-03 14:42:00,
2013-01-03 06:53:00,33.0,23.0,30.07,North,0,0.0,3.0,66,0.00,,,0.00,,2013-01-03 14:53:00,
2013-01-03 07:02:00,33.0,23.0,30.07,South,174,3.0,7.0,67,0.00,,,0.00,,2013-01-03 15:02:00,
2013-01-03 07:12:00,34.0,24.0,30.07,North,0,0.0,2.0,67,0.00,,,0.00,,2013-01-03 15:12:00,
2013-01-03 07:22:00,34.0,24.0,30.07,North,0,0.0,2.0,67,0.00,,,0.00,,2013-01-03 15:22:00,
2013-01-03 07:32:00,33.0,25.0,30.07,North,0,0.0,2.0,72,0.00,,,0.00,,2013-01-03 15:32:00,
2013-01-03 07:42:00,33.0,25.0,30.07,North,0,0.0,2.0,72,0.00,,,0.00,,2013-01-03 15:42:00,
2013-01-03 07:53:00,32.0,22.0,30.06,ESE,112,1.0,9.0,65,0.00,,,0.00,,2013-01-03 15:53:00,
2013-01-03 08:02:00,32.0,21.0,30.07,ESE,109,4.0,6.0,63,0.00,,,0.00,,2013-01-03 16:02:00,
2013-01-03 08:11:00,32.0,21.0,30.07,ESE,109,4.0,6.0,63,0.00,,,0.00,,2013-01-03 16:11:00,
2013-01-03 08:22:00,33.0,21.0,30.07,ESE,113,2.0,7.0,61,0.00,,,0.00,,2013-01-03 16:22:00,
2013-01-03 08:32:00,33.0,21.0,30.06,ESE,103,5.0,10.0,60,0.00,,,0.00,,2013-01-03 16:32:00,
2013-01-03 08:42:00,33.0,21.0,30.06,ESE,103,5.0,10.0,60,0.00,,,0.00,,2013-01-03 16:42:00,
2013-01-03 08:53:00,34.0,21.0,30.07,ESE,110,3.0,9.0,59,0.00,,,0.00,,2013-01-03 16:53:00,
2013-01-03 09:02:00,34.0,21.0,30.07,SE,145,1.0,9.0,59,0.00,,,0.00,,2013-01-03 17:02:00,
2013-01-03 09:12:00,34.0,21.0,30.07,SE,145,1.0,9.0,59,0.00,,,0.00,,2013-01-03 17:12:00,
2013-01-03 09:22:00,35.0,21.0,30.07,ESE,118,3.0,9.0,57,0.00,,,0.00,,2013-01-03 17:22:00,
2013-01-03 09:32:00,35.0,20.0,30.07,ESE,111,4.0,9.0,55,0.00,,,0.00,,2013-01-03 17:32:00,
2013-01-03 09:42:00,35.0,20.0,30.07,ESE,111,4.0,9.0,55,0.00,,,0.00,,2013-01-03 17:42:00,
2013-01-03 09:53:00,36.0,21.0,30.08,ESE,123,1.0,5.0,54,0.00,,,0.00,,2013-01-03 17:53:00,
2013-01-03 10:02:00,36.0,21.0,30.08,SSE,164,1.0,5.0,53,0.00,,,0.00,,2013-01-03 18:02:00,
2013-01-03 10:12:00,36.0,21.0,30.08,SSE,164,1.0,5.0,53,0.00,,,0.00,,2013-01-03 18:12:00,
2013-01-03 10:22:00,37.0,21.0,30.09,South,181,3.0,10.0,51,0.00,,,0.00,,2013-01-03 18:22:00,
2013-01-03 10:32:00,38.0,21.0,30.08,South,182,3.0,7.0,50,0.00,,,0.00,,2013-01-03 18:32:00,
2013-01-03 10:42:00,38.0,21.0,30.08,South,182,3.0,7.0,50,0.00,,,0.00,,2013-01-03 18:42:00,
2013-01-03 10:53:00,39.0,21.0,30.08,South,185,1.0,6.0,48,0.00,,,0.00,,2013-01-03 18:53:00,
2013-01-03 11:02:00,39.0,23.0,30.08,SW,223,5.0,9.0,53,0.00,,,0.00,,2013-01-03 19:02:00,
2013-01-03 11:12:00,39.0,23.0,30.08,SW,223,5.0,9.0,53,0.00,,,0.00,,2013-01-03 19:12:00,
2013-01-03 11:56:00,42.0,24.0,30.07,SSE,162,3.0,9.0,48,0.00,,,0.00,,2013-01-03 19:56:00,
2013-01-03 12:02:00,42.0,26.0,30.06,South,189,4.0,11.0,53,0.00,,,0.00,,2013-01-03 20:02:00,
2013-01-03 12:12:00,42.0,26.0,30.06,South,189,4.0,11.0,53,0.00,,,0.00,,2013-01-03 20:12:00,
2013-01-03 12:22:00,41.0,28.0,30.06,South,186,5.0,12.0,60,0.00,,,0.00,,2013-01-03 20:22:00,
2013-01-03 12:32:00,41.0,31.0,30.06,South,190,3.0,10.0,66,0.00,,,0.00,,2013-01-03 20:32:00,
2013-01-03 12:42:00,41.0,31.0,30.06,South,190,3.0,10.0,66,0.00,,,0.00,,2013-01-03 20:42:00,
2013-01-03 12:53:00,41.0,30.0,30.06,South,183,3.0,11.0,65,0.00,,,0.00,,2013-01-03 20:53:00,
2013-01-03 13:02:00,41.0,29.0,30.05,SSW,205,5.0,11.0,61,0.00,,,0.00,,2013-01-03 21:02:00,
2013-01-03 13:12:00,41.0,29.0,30.05,SSW,205,5.0,11.0,61,0.00,,,0.00,,2013-01-03 21:12:00,
2013-01-03 13:22:00,41.0,28.0,30.05,SSW,204,4.0,9.0,60,0.00,,,0.00,,2013-01-03 21:22:00,
2013-01-03 13:33:00,42.0,28.0,30.05,SSW,206,6.0,14.0,58,0.00,,,0.00,,2013-01-03 21:33:00,
2013-01-03 13:44:00,42.0,28.0,30.05,SSW,206,6.0,14.0,58,0.00,,,0.00,,2013-01-03 21:44:00,
2013-01-03 13:53:00,42.0,27.0,30.04,SSW,203,4.0,13.0,56,0.00,,,0.00,,2013-01-03 21:53:00,
2013-01-03 14:01:00,42.0,28.0,30.04,South,184,3.0,7.0,57,0.00,,,0.00,,2013-01-03 22:01:00,
2013-01-03 14:11:00,42.0,28.0,30.04,South,184,3.0,7.0,57,0.00,,,0.00,,2013-01-03 22:11:00,
2013-01-03 14:22:00,43.0,29.0,30.04,SSW,200,3.0,7.0,58,0.00,,,0.00,,2013-01-03 22:22:00,
2013-01-03 14:32:00,43.0,29.0,30.04,South,183,3.0,7.0,57,0.00,,,0.00,,2013-01-03 22:32:00,
2013-01-03 14:42:00,43.0,29.0,30.04,South,183,3.0,7.0,57,0.00,,,0.00,,2013-01-03 22:42:00,
2013-01-03 14:52:00,42.0,29.0,30.04,South,185,4.0,10.0,59,0.00,,,0.00,,2013-01-03 22:52:00,
2013-01-03 15:02:00,43.0,30.0,30.05,South,185,5.0,10.0,59,0.00,,,0.00,,2013-01-03 23:02:00,
2013-01-03 15:12:00,43.0,30.0,30.05,South,185,5.0,10.0,59,0.00,,,0.00,,2013-01-03 23:12:00,
2013-01-03 15:22:00,42.0,29.0,30.06,SSW,209,7.0,13.0,59,0.00,,,0.00,,2013-01-03 23:22:00,
2013-01-03 15:32:00,41.0,28.0,30.07,South,176,4.0,10.0,60,0.00,,,0.00,,2013-01-03 23:32:00,
2013-01-03 15:42:00,41.0,28.0,30.07,South,176,4.0,10.0,60,0.00,,,0.00,,2013-01-03 23:42:00,
2013-01-03 15:53:00,42.0,30.0,30.07,South,179,5.0,10.0,63,0.00,,,0.00,,2013-01-03 23:53:00,
2013-01-03 16:02:00,41.0,30.0,30.07,South,184,4.0,7.0,64,0.00,,,0.00,,2013-01-04 00:02:00,
2013-01-03 16:12:00,41.0,30.0,30.07,South,184,4.0,7.0,64,0.00,,,0.00,,2013-01-04 00:12:00,
2013-01-03 16:22:00,41.0,30.0,30.06,South,188,1.0,7.0,65,0.00,,,0.00,,2013-01-04 00:22:00,
2013-01-03 16:32:00,41.0,30.0,30.06,South,180,3.0,5.0,65,0.00,,,0.00,,2013-01-04 00:32:00,
2013-01-03 16:42:00,41.0,30.0,30.06,South,180,3.0,5.0,65,0.00,,,0.00,,2013-01-04 00:42:00,
2013-01-03 16:52:00,41.0,29.0,30.07,South,173,3.0,9.0,62,0.00,,,0.00,,2013-01-04 00:52:00,
2013-01-03 17:02:00,41.0,27.0,30.07,South,179,4.0,10.0,58,0.00,,,0.00,,2013-01-04 01:02:00,
2013-01-03 17:12:00,41.0,27.0,30.07,South,179,4.0,10.0,58,0.00,,,0.00,,2013-01-04 01:12:00,
2013-01-03 17:22:00,41.0,28.0,30.07,South,178,3.0,7.0,59,0.00,,,0.00,,2013-01-04 01:22:00,
2013-01-03 17:32:00,40.0,29.0,30.06,SSE,150,1.0,6.0,64,0.00,,,0.00,,2013-01-04 01:32:00,
2013-01-03 17:42:00,40.0,29.0,30.06,SSE,150,1.0,6.0,64,0.00,,,0.00,,2013-01-04 01:42:00,
2013-01-03 17:52:00,40.0,30.0,30.06,SSE,166,3.0,6.0,68,0.00,,,0.00,,2013-01-04 01:52:00,
2013-01-03 18:01:00,40.0,29.0,30.04,ESE,111,1.0,4.0,64,0.00,,,0.00,,2013-01-04 02:01:00,
2013-01-03 18:12:00,40.0,29.0,30.04,ESE,111,1.0,4.0,64,0.00,,,0.00,,2013-01-04 02:12:00,
2013-01-03 18:22:00,40.0,28.0,30.04,SSW,195,1.0,3.0,62,0.00,,,0.00,,2013-01-04 02:22:00,
2013-01-03 18:32:00,40.0,32.0,30.08,SSW,207,5.0,13.0,74,0.00,,,0.00,,2013-01-04 02:32:00,
2013-01-03 18:42:00,40.0,32.0,30.08,SSW,207,5.0,13.0,74,0.00,,,0.00,,2013-01-04 02:42:00,
2013-01-03 18:52:00,40.0,33.0,30.08,SW,215,3.0,9.0,75,0.00,,,0.00,,2013-01-04 02:52:00,
2013-01-03 19:02:00,39.0,32.0,30.08,SSW,201,1.0,4.0,77,0.02,,,0.02,,2013-01-04 03:02:00,
2013-01-03 19:11:00,39.0,32.0,30.08,SSW,201,1.0,4.0,77,0.02,,,0.02,,2013-01-04 03:11:00,
2013-01-03 19:22:00,38.0,34.0,30.07,South,190,2.0,4.0,84,0.05,,,0.05,,2013-01-04 03:22:00,
2013-01-03 19:32:00,38.0,34.0,30.07,North,0,0.0,1.0,86,0.08,,,0.08,,2013-01-04 03:32:00,
2013-01-03 19:42:00,38.0,34.0,30.07,North,0,0.0,1.0,86,0.08,,,0.08,,2013-01-04 03:42:00,
2013-01-03 19:52:00,37.0,34.0,30.08,South,172,1.0,2.0,88,0.10,,,0.10,,2013-01-04 03:52:00,
2013-01-03 20:02:00,37.0,33.0,30.07,North,0,0.0,3.0,85,0.09,,,0.11,,2013-01-04 04:02:00,
2013-01-03 20:11:00,37.0,33.0,30.07,North,0,0.0,3.0,85,0.09,,,0.11,,2013-01-04 04:11:00,
2013-01-03 20:22:00,36.0,32.0,30.07,South,188,2.0,4.0,85,0.06,,,0.11,,2013-01-04 04:22:00,
2013-01-03 20:32:00,36.0,33.0,30.09,North,0,0.0,1.0,87,0.04,,,0.12,,2013-01-04 04:32:00,
2013-01-03 20:42:00,36.0,33.0,30.09,North,0,0.0,1.0,87,0.04,,,0.12,,2013-01-04 04:42:00,
2013-01-03 20:52:00,36.0,33.0,30.08,North,0,0.0,1.0,88,0.02,,,0.12,,2013-01-04 04:52:00,
2013-01-03 21:03:00,37.0,34.0,30.08,North,0,0.0,1.0,90,0.01,,,0.12,,2013-01-04 05:03:00,
2013-01-03 21:12:00,37.0,34.0,30.08,North,0,0.0,1.0,90,0.01,,,0.12,,2013-01-04 05:12:00,
2013-01-03 21:22:00,37.0,34.0,30.08,North,0,0.0,1.0,90,0.02,,,0.13,,2013-01-04 05:22:00,
2013-01-03 21:32:00,36.0,34.0,30.09,North,0,0.0,2.0,91,0.02,,,0.14,,2013-01-04 05:32:00,
2013-01-03 21:42:00,36.0,34.0,30.09,North,0,0.0,2.0,91,0.02,,,0.14,,2013-01-04 05:42:00,
2013-01-03 21:52:00,36.0,34.0,30.09,North,0,0.0,2.0,92,0.04,,,0.16,,2013-01-04 05:52:00,
2013-01-03 22:02:00,36.0,34.0,30.08,North,0,0.0,2.0,92,0.06,,,0.18,,2013-01-04 06:02:00,
2013-01-03 22:11:00,36.0,34.0,30.08,North,0,0.0,2.0,92,0.06,,,0.18,,2013-01-04 06:11:00,
2013-01-03 22:22:00,36.0,34.0,30.09,North,0,0.0,1.0,93,0.06,,,0.19,,2013-01-04 06:22:00,
2013-01-03 22:32:00,36.0,34.0,30.09,North,349,1.0,3.0,93,0.06,,,0.20,,2013-01-04 06:32:00,
2013-01-03 22:42:00,36.0,34.0,30.09,North,349,1.0,3.0,93,0.06,,,0.20,,2013-01-04 06:42:00,
2013-01-03 22:52:00,36.0,34.0,30.09,ENE,75,1.0,3.0,94,0.06,,,0.22,,2013-01-04 06:52:00,
2013-01-03 23:01:00,36.0,34.0,30.10,North,0,0.0,3.0,94,0.05,,,0.23,,2013-01-04 07:01:00,
2013-01-03 23:11:00,36.0,34.0,30.10,North,0,0.0,3.0,94,0.05,,,0.23,,2013-01-04 07:11:00,
2013-01-03 23:22:00,36.0,35.0,30.10,ESE,107,1.0,4.0,95,0.06,,,0.24,,2013-01-04 07:22:00,
2013-01-03 23:32:00,36.0,35.0,30.10,North,0,0.0,4.0,95,0.06,,,0.26,,2013-01-04 07:32:00,
2013-01-03 23:42:00,36.0,35.0,30.10,North,0,0.0,4.0,95,0.06,,,0.26,,2013-01-04 07:42:00,
2013-01-03 23:52:00,36.0,35.0,30.10,North,0,0.0,3.0,95,0.05,,,0.26,,2013-01-04 07:52:00,